createdAt,value
2018-11-11T07:50:42.832Z,28.20
2018-11-11T07:53:36.805Z,28.20
2018-11-11T07:56:31.460Z,28.20
2018-11-11T07:59:25.471Z,28.20
2018-11-11T08:02:20.314Z,28.20
2018-11-11T08:05:14.696Z,28.20
2018-11-11T08:08:08.815Z,28.20
2018-11-11T08:11:36.730Z,28.20
2018-11-11T08:14:31.915Z,28.20
2018-11-11T08:17:27.176Z,28.30
2018-11-11T08:20:21.546Z,28.30
2018-11-11T08:23:15.415Z,28.30
2018-11-11T08:26:10.189Z,28.30
2018-11-11T08:29:04.468Z,28.30
2018-11-11T08:31:58.490Z,28.40
2018-11-11T08:34:52.429Z,28.40
2018-11-11T08:37:46.481Z,28.40
2018-11-11T08:40:41.225Z,28.40
2018-11-11T08:43:35.466Z,28.40
2018-11-11T08:46:29.273Z,28.40
2018-11-11T08:49:22.628Z,28.50
2018-11-11T08:52:16.968Z,28.50
2018-11-11T08:55:10.887Z,28.50
2018-11-11T08:58:05.132Z,28.50
2018-11-11T09:00:59.464Z,28.50
2018-11-11T09:03:53.786Z,28.60
2018-11-11T09:06:47.624Z,28.60
2018-11-11T09:09:41.298Z,28.60
2018-11-11T09:12:35.174Z,28.60
2018-11-11T09:15:28.944Z,28.60
2018-11-11T09:18:23.025Z,28.60
2018-11-11T09:21:17.140Z,28.70
2018-11-11T09:24:13.775Z,28.70
2018-11-11T09:27:07.237Z,28.70
2018-11-11T09:30:01.186Z,28.70
2018-11-11T09:32:55.250Z,28.80
2018-11-11T09:35:49.312Z,28.80
2018-11-11T09:38:43.443Z,28.80
2018-11-11T09:41:37.617Z,28.80
2018-11-11T09:44:31.397Z,28.90
2018-11-11T09:47:27.421Z,28.90
2018-11-11T09:50:21.194Z,28.90
2018-11-11T09:53:15.264Z,28.90
2018-11-11T09:56:09.572Z,28.90
2018-11-11T09:59:03.850Z,28.90
2018-11-11T10:01:57.935Z,28.90
2018-11-11T10:05:09.515Z,29.00
2018-11-11T10:08:33.818Z,29.00
2018-11-11T10:11:46.020Z,29.00
2018-11-11T10:14:56.790Z,29.00
2018-11-11T10:17:57.714Z,29.00
2018-11-11T10:21:21.414Z,29.00
2018-11-11T10:24:36.377Z,29.00
2018-11-11T10:27:54.523Z,29.00
2018-11-11T10:30:52.189Z,29.00
2018-11-11T10:33:56.722Z,29.00
2018-11-11T10:37:06.921Z,29.00
2018-11-11T10:40:25.125Z,28.90
2018-11-11T10:43:35.995Z,28.90
2018-11-11T10:46:47.905Z,28.90
2018-11-11T10:49:46.901Z,28.90
2018-11-11T10:52:40.767Z,28.80
2018-11-11T10:55:34.641Z,28.80
2018-11-11T10:58:30.294Z,28.70
2018-11-11T11:01:42.875Z,28.70
2018-11-11T11:04:41.155Z,28.70
2018-11-11T11:07:35.977Z,28.70
2018-11-11T11:10:29.938Z,28.60
2018-11-11T11:13:24.471Z,28.60
2018-11-11T11:16:18.540Z,28.60
2018-11-11T11:19:14.330Z,28.50
2018-11-11T11:22:11.175Z,28.50
2018-11-11T11:25:05.368Z,28.50
2018-11-11T11:27:59.451Z,28.40
2018-11-11T11:30:54.180Z,28.40
2018-11-11T11:33:48.111Z,28.40
2018-11-11T11:36:43.932Z,28.30
2018-11-11T11:39:38.534Z,28.30
2018-11-11T11:42:33.119Z,28.20
2018-11-11T11:45:26.798Z,28.20
2018-11-11T11:48:21.153Z,28.10
2018-11-11T11:51:15.465Z,28.00
2018-11-11T11:54:10.057Z,28.00
2018-11-11T11:57:04.343Z,27.90
2018-11-11T11:59:58.529Z,27.90
2018-11-11T12:02:53.122Z,27.90
2018-11-11T12:05:47.303Z,27.80
2018-11-11T12:08:41.566Z,27.80
2018-11-11T12:11:38.918Z,27.70
2018-11-11T12:14:29.548Z,27.70
2018-11-11T12:17:23.632Z,27.70
2018-11-11T12:20:18.117Z,27.70
2018-11-11T12:23:12.684Z,27.60
2018-11-11T12:26:06.804Z,27.60
2018-11-11T12:29:01.388Z,27.60
2018-11-11T12:31:55.375Z,27.50
2018-11-11T12:34:49.461Z,27.50
2018-11-11T12:37:44.040Z,27.40
2018-11-11T12:40:37.918Z,27.40
2018-11-11T12:43:31.493Z,27.40
2018-11-11T12:46:25.366Z,27.30
2018-11-11T12:49:19.358Z,27.30
2018-11-11T12:52:13.222Z,27.20
2018-11-11T12:55:07.483Z,27.20
2018-11-11T12:58:01.302Z,27.20
2018-11-11T13:00:55.074Z,27.10
2018-11-11T13:03:50.873Z,27.10
2018-11-11T13:06:47.000Z,27.10
2018-11-11T13:09:40.499Z,27.00
2018-11-11T13:15:28.119Z,27.00
2018-11-11T13:18:22.099Z,27.00
2018-11-11T13:21:15.770Z,26.90
2018-11-11T13:24:09.765Z,26.90
2018-11-11T13:27:03.726Z,26.80
2018-11-11T13:29:57.713Z,26.80
2018-11-11T13:32:51.688Z,26.80
2018-11-11T13:35:45.967Z,26.80
2018-11-11T13:38:42.514Z,26.70
2018-11-11T13:41:45.993Z,26.70
2018-11-11T13:44:40.144Z,26.70
2018-11-11T13:47:34.196Z,26.70
2018-11-11T13:50:28.380Z,26.70
2018-11-11T13:53:22.118Z,26.70
2018-11-11T13:56:16.315Z,26.70
2018-11-11T13:59:10.289Z,26.70
2018-11-11T14:02:04.174Z,26.70
2018-11-11T14:04:57.740Z,26.70
2018-11-11T14:07:51.581Z,26.70
2018-11-11T14:10:45.732Z,26.70
2018-11-11T14:13:39.676Z,26.70
2018-11-11T14:16:33.562Z,26.70
2018-11-11T14:19:27.509Z,26.70
2018-11-11T14:22:21.510Z,26.70
2018-11-11T14:25:20.433Z,26.70
2018-11-11T14:28:14.699Z,26.70
2018-11-11T14:31:09.077Z,26.70
2018-11-11T14:34:03.168Z,26.60
2018-11-11T14:36:57.550Z,26.60
2018-11-11T14:39:51.588Z,26.70
2018-11-11T14:42:45.492Z,26.60
2018-11-11T14:45:39.184Z,26.60
2018-11-11T14:48:33.569Z,26.60
2018-11-11T14:51:27.952Z,26.60
2018-11-11T14:54:22.142Z,26.60
2018-11-11T14:57:16.222Z,26.60
2018-11-11T15:00:13.489Z,26.50
2018-11-11T15:03:23.531Z,26.50
2018-11-11T15:06:17.315Z,26.50
2018-11-11T15:09:17.022Z,26.40
2018-11-11T15:12:11.505Z,26.40
2018-11-11T15:15:05.608Z,26.30
2018-11-11T15:18:02.342Z,26.30
2018-11-11T15:20:56.012Z,26.30
2018-11-11T15:23:49.579Z,26.30
2018-11-11T15:26:43.762Z,26.20
2018-11-11T15:29:37.448Z,26.20
2018-11-11T15:32:30.801Z,26.20
2018-11-11T15:35:25.088Z,26.20
2018-11-11T15:38:18.910Z,26.10
2018-11-11T15:41:13.103Z,26.10
2018-11-11T15:44:07.221Z,26.10
2018-11-11T15:47:01.301Z,26.10
2018-11-11T15:49:55.180Z,26.10
2018-11-11T15:52:50.439Z,26.00
2018-11-11T15:55:44.061Z,26.00
2018-11-11T15:58:37.943Z,26.00
2018-11-11T16:01:32.016Z,26.00
2018-11-11T16:04:25.891Z,26.00
2018-11-11T16:07:19.567Z,26.00
2018-11-11T16:10:14.743Z,26.00
2018-11-11T16:13:09.260Z,26.00
2018-11-11T16:16:03.137Z,25.90
2018-11-11T16:18:57.637Z,25.90
2018-11-11T16:21:51.712Z,25.90
2018-11-11T16:24:45.789Z,25.90
2018-11-11T16:27:43.853Z,25.90
2018-11-11T16:30:38.867Z,25.80
2018-11-11T16:33:33.910Z,25.80
2018-11-11T16:36:27.740Z,25.80
2018-11-11T16:39:21.707Z,25.80
2018-11-11T16:42:15.305Z,25.80
2018-11-11T16:45:09.377Z,25.80
2018-11-11T16:48:03.842Z,25.80
2018-11-11T16:51:03.093Z,25.70
2018-11-11T16:53:52.601Z,25.70
2018-11-11T16:56:46.113Z,25.70
2018-11-11T16:59:39.548Z,25.70
2018-11-11T17:02:33.361Z,25.70
2018-11-11T17:05:28.589Z,25.70
2018-11-11T17:08:22.544Z,25.60
2018-11-11T17:11:16.719Z,25.60
2018-11-11T17:14:12.387Z,25.60
2018-11-11T17:17:05.912Z,25.60
2018-11-11T17:19:59.116Z,25.60
2018-11-11T17:22:55.419Z,25.60
2018-11-11T17:25:46.450Z,25.60
2018-11-11T17:28:39.853Z,25.50
2018-11-11T17:31:32.935Z,25.50
2018-11-11T17:34:26.625Z,25.50
2018-11-11T17:37:20.218Z,25.50
2018-11-11T17:40:19.530Z,25.50
2018-11-11T17:43:12.552Z,25.50
2018-11-11T17:46:06.123Z,25.50
2018-11-11T17:48:59.332Z,25.50
2018-11-11T17:51:52.770Z,25.50
2018-11-11T17:54:46.336Z,25.50
2018-11-11T17:57:39.795Z,25.50
2018-11-11T18:00:33.863Z,25.60
2018-11-11T18:03:28.313Z,25.60
2018-11-11T18:06:21.500Z,25.60
2018-11-11T18:09:15.007Z,25.60
2018-11-11T18:12:08.871Z,25.60
2018-11-11T18:15:02.330Z,25.60
2018-11-11T18:17:56.247Z,25.60
2018-11-11T18:20:50.000Z,25.60
2018-11-11T18:23:43.451Z,25.60
2018-11-11T18:26:37.212Z,25.60
2018-11-11T18:29:30.280Z,25.70
2018-11-11T18:32:23.545Z,25.70
2018-11-11T18:35:17.739Z,25.70
2018-11-11T18:38:13.548Z,25.70
2018-11-11T18:41:06.812Z,25.70
2018-11-11T18:44:00.380Z,25.70
2018-11-11T18:46:54.071Z,25.70
2018-11-11T18:49:47.508Z,25.60
2018-11-11T18:52:40.779Z,25.60
2018-11-11T18:55:34.244Z,25.50
2018-11-11T18:58:27.202Z,25.50
2018-11-11T19:01:20.299Z,25.50
2018-11-11T19:04:13.719Z,25.40
2018-11-11T19:07:06.895Z,25.30
2018-11-11T19:09:59.996Z,25.30
2018-11-11T19:12:54.786Z,25.30
2018-11-11T19:15:48.216Z,25.20
2018-11-11T19:18:41.333Z,25.20
2018-11-11T19:21:34.579Z,25.20
2018-11-11T19:24:28.022Z,25.20
2018-11-11T19:27:21.472Z,25.10
2018-11-11T19:30:16.401Z,25.00
2018-11-11T19:33:09.861Z,25.00
2018-11-11T19:36:04.139Z,25.00
2018-11-11T19:39:00.730Z,25.00
2018-11-11T19:41:54.548Z,24.90
2018-11-11T19:44:48.469Z,25.00
2018-11-11T19:47:42.917Z,24.90
2018-11-11T19:50:36.962Z,24.90
2018-11-11T19:53:31.139Z,24.90
2018-11-11T19:56:25.630Z,24.90
2018-11-11T19:59:19.283Z,24.90
2018-11-11T20:02:12.972Z,24.90
2018-11-11T20:05:07.348Z,24.90
2018-11-11T20:08:02.167Z,24.80
2018-11-11T20:10:56.036Z,24.80
2018-11-11T20:13:50.435Z,24.80
2018-11-11T20:16:44.409Z,24.80
2018-11-11T20:19:38.381Z,24.80
2018-11-11T20:22:32.152Z,24.70
2018-11-11T20:25:25.860Z,24.70
2018-11-11T20:28:20.077Z,24.70
2018-11-11T20:31:17.269Z,24.70
2018-11-11T20:34:11.342Z,24.70
2018-11-11T20:37:05.462Z,24.70
2018-11-11T20:39:59.612Z,24.60
2018-11-11T20:42:54.012Z,24.60
2018-11-11T20:45:47.674Z,24.60
2018-11-11T20:48:41.497Z,24.60
2018-11-11T20:51:39.623Z,24.60
2018-11-11T20:54:33.426Z,24.60
2018-11-11T20:57:27.119Z,24.60
2018-11-11T21:00:22.506Z,24.50
2018-11-11T21:03:16.356Z,24.50
2018-11-11T21:06:10.556Z,24.50
2018-11-11T21:09:04.737Z,24.50
2018-11-11T21:11:58.401Z,24.40
2018-11-11T21:14:52.267Z,24.40
2018-11-11T21:17:46.509Z,24.40
2018-11-11T21:20:40.742Z,24.40
2018-11-11T21:23:34.187Z,24.40
2018-11-11T21:26:28.087Z,24.30
2018-11-11T21:29:21.887Z,24.30
2018-11-11T21:32:16.283Z,24.30
2018-11-11T21:35:10.590Z,24.30
2018-11-11T21:38:04.510Z,24.30
2018-11-11T21:40:58.301Z,24.30
2018-11-11T21:43:52.368Z,24.30
2018-11-11T21:46:46.433Z,24.30
2018-11-11T21:49:40.660Z,24.30
2018-11-11T21:52:34.614Z,24.30
2018-11-11T21:55:28.902Z,24.30
2018-11-11T21:58:23.186Z,24.30
2018-11-11T22:01:16.774Z,24.30
2018-11-11T22:04:10.633Z,24.30
2018-11-11T22:07:04.740Z,24.20
2018-11-11T22:09:59.013Z,24.20
2018-11-11T22:12:52.776Z,24.10
2018-11-11T22:15:47.419Z,24.10
2018-11-11T22:18:41.856Z,24.10
2018-11-11T22:21:36.040Z,24.00
2018-11-11T22:24:30.124Z,24.00
2018-11-11T22:27:24.402Z,24.00
2018-11-11T22:30:18.794Z,24.00
2018-11-11T22:33:14.010Z,24.00
2018-11-11T22:36:08.192Z,23.90
2018-11-11T22:39:01.855Z,23.90
2018-11-11T22:41:55.532Z,23.90
2018-11-11T22:44:49.488Z,23.90
2018-11-11T22:47:43.625Z,23.90
2018-11-11T22:50:37.611Z,23.80
2018-11-11T22:53:31.672Z,23.80
2018-11-11T22:56:25.528Z,23.80
2018-11-11T22:59:19.550Z,23.80
2018-11-11T23:02:13.586Z,23.80
2018-11-11T23:05:07.878Z,23.70
2018-11-11T23:08:02.052Z,23.80
2018-11-11T23:10:56.141Z,23.70
2018-11-11T23:13:50.216Z,23.70
2018-11-11T23:16:44.303Z,23.70
2018-11-11T23:19:41.348Z,23.70
2018-11-11T23:22:35.316Z,23.70
2018-11-11T23:25:29.405Z,23.70
2018-11-11T23:28:23.418Z,23.70
2018-11-11T23:31:17.580Z,23.60
2018-11-11T23:34:11.556Z,23.70
2018-11-11T23:37:05.770Z,23.70
2018-11-11T23:39:59.558Z,23.70
2018-11-11T23:42:53.901Z,23.70
2018-11-11T23:45:47.670Z,23.70
2018-11-11T23:48:42.275Z,23.70
2018-11-11T23:51:36.139Z,23.70
2018-11-11T23:54:29.799Z,23.70
2018-11-11T23:57:24.002Z,23.70
